sensor_id;sensor_type;location;lat;lon;timestamp;temperature;humidity
46309;DHT22;32037;50.820;6.494;2022-07-05T00:00:27;26.60;43.60
46309;DHT22;32037;50.820;6.494;2022-07-05T00:03:07;26.60;43.60
46309;DHT22;32037;50.820;6.494;2022-07-05T00:05:48;26.60;43.50
46309;DHT22;32037;50.820;6.494;2022-07-05T00:08:29;26.60;43.60
46309;DHT22;32037;50.820;6.494;2022-07-05T00:11:09;26.60;43.70
46309;DHT22;32037;50.820;6.494;2022-07-05T00:13:49;26.60;43.70
46309;DHT22;32037;50.820;6.494;2022-07-05T00:16:29;26.60;43.60
46309;DHT22;32037;50.820;6.494;2022-07-05T00:19:10;26.60;43.70
46309;DHT22;32037;50.820;6.494;2022-07-05T00:21:50;26.60;43.70
46309;DHT22;32037;50.820;6.494;2022-07-05T00:24:30;26.60;43.80
46309;DHT22;32037;50.820;6.494;2022-07-05T00:27:11;26.60;43.80
46309;DHT22;32037;50.820;6.494;2022-07-05T00:29:51;26.60;43.80
46309;DHT22;32037;50.820;6.494;2022-07-05T00:32:31;26.60;44.00
46309;DHT22;32037;50.820;6.494;2022-07-05T00:35:12;26.60;44.00
46309;DHT22;32037;50.820;6.494;2022-07-05T00:37:52;26.60;43.80
46309;DHT22;32037;50.820;6.494;2022-07-05T00:40:32;26.60;43.90
46309;DHT22;32037;50.820;6.494;2022-07-05T00:43:12;26.50;43.90
46309;DHT22;32037;50.820;6.494;2022-07-05T00:45:51;26.60;43.90
46309;DHT22;32037;50.820;6.494;2022-07-05T00:48:31;26.50;43.80
46309;DHT22;32037;50.820;6.494;2022-07-05T00:51:11;26.50;43.90
46309;DHT22;32037;50.820;6.494;2022-07-05T00:53:52;26.50;43.90
46309;DHT22;32037;50.820;6.494;2022-07-05T00:56:32;26.50;43.90
46309;DHT22;32037;50.820;6.494;2022-07-05T00:59:12;26.50;43.90
46309;DHT22;32037;50.820;6.494;2022-07-05T01:01:52;26.50;43.90
46309;DHT22;32037;50.820;6.494;2022-07-05T01:04:32;26.50;43.90
46309;DHT22;32037;50.820;6.494;2022-07-05T01:07:13;26.50;43.90
46309;DHT22;32037;50.820;6.494;2022-07-05T01:09:55;26.50;44.00
46309;DHT22;32037;50.820;6.494;2022-07-05T01:12:37;26.50;43.90
46309;DHT22;32037;50.820;6.494;2022-07-05T01:15:20;26.50;44.00
46309;DHT22;32037;50.820;6.494;2022-07-05T01:18:02;26.50;45.20
46309;DHT22;32037;50.820;6.494;2022-07-05T01:20:47;26.50;44.00
46309;DHT22;32037;50.820;6.494;2022-07-05T01:23:29;26.50;44.00
46309;DHT22;32037;50.820;6.494;2022-07-05T01:26:09;26.50;44.00
46309;DHT22;32037;50.820;6.494;2022-07-05T01:28:49;26.50;44.00
46309;DHT22;32037;50.820;6.494;2022-07-05T01:31:29;26.50;44.00
46309;DHT22;32037;50.820;6.494;2022-07-05T01:34:10;26.50;44.00
46309;DHT22;32037;50.820;6.494;2022-07-05T01:36:50;26.50;44.00
46309;DHT22;32037;50.820;6.494;2022-07-05T01:39:32;26.50;44.00
46309;DHT22;32037;50.820;6.494;2022-07-05T01:42:13;26.50;45.40
46309;DHT22;32037;50.820;6.494;2022-07-05T01:44:53;26.50;44.10
46309;DHT22;32037;50.820;6.494;2022-07-05T01:47:36;26.50;44.20
46309;DHT22;32037;50.820;6.494;2022-07-05T01:50:20;26.40;44.10
46309;DHT22;32037;50.820;6.494;2022-07-05T01:53:03;26.40;44.10
46309;DHT22;32037;50.820;6.494;2022-07-05T01:55:43;26.40;44.00
46309;DHT22;32037;50.820;6.494;2022-07-05T01:58:26;26.40;44.20
46309;DHT22;32037;50.820;6.494;2022-07-05T02:01:08;26.40;44.10
46309;DHT22;32037;50.820;6.494;2022-07-05T02:03:50;26.40;44.20
46309;DHT22;32037;50.820;6.494;2022-07-05T02:06:37;26.40;44.10
46309;DHT22;32037;50.820;6.494;2022-07-05T02:09:20;26.40;44.10
46309;DHT22;32037;50.820;6.494;2022-07-05T02:12:02;26.40;44.20
46309;DHT22;32037;50.820;6.494;2022-07-05T02:14:44;26.40;44.20
46309;DHT22;32037;50.820;6.494;2022-07-05T02:17:30;26.40;44.30
46309;DHT22;32037;50.820;6.494;2022-07-05T02:20:12;26.40;44.30
46309;DHT22;32037;50.820;6.494;2022-07-05T02:22:53;26.40;44.40
46309;DHT22;32037;50.820;6.494;2022-07-05T02:25:35;26.40;44.40
46309;DHT22;32037;50.820;6.494;2022-07-05T02:28:21;26.40;44.40
46309;DHT22;32037;50.820;6.494;2022-07-05T02:31:02;26.40;44.40
46309;DHT22;32037;50.820;6.494;2022-07-05T02:33:44;26.40;44.30
46309;DHT22;32037;50.820;6.494;2022-07-05T02:36:24;26.30;44.30
46309;DHT22;32037;50.820;6.494;2022-07-05T02:39:05;26.30;44.30
46309;DHT22;32037;50.820;6.494;2022-07-05T02:41:46;26.30;44.30
46309;DHT22;32037;50.820;6.494;2022-07-05T02:44:28;26.30;44.30
46309;DHT22;32037;50.820;6.494;2022-07-05T02:47:09;26.30;44.30
46309;DHT22;32037;50.820;6.494;2022-07-05T02:49:50;26.30;44.30
46309;DHT22;32037;50.820;6.494;2022-07-05T02:52:32;26.30;45.60
46309;DHT22;32037;50.820;6.494;2022-07-05T02:55:13;26.30;44.30
46309;DHT22;32037;50.820;6.494;2022-07-05T02:57:55;26.30;44.40
46309;DHT22;32037;50.820;6.494;2022-07-05T03:00:38;26.30;44.50
46309;DHT22;32037;50.820;6.494;2022-07-05T03:03:19;26.30;44.50
46309;DHT22;32037;50.820;6.494;2022-07-05T03:05:59;26.30;44.30
46309;DHT22;32037;50.820;6.494;2022-07-05T03:08:42;26.20;44.30
46309;DHT22;32037;50.820;6.494;2022-07-05T03:11:25;26.20;44.40
46309;DHT22;32037;50.820;6.494;2022-07-05T03:14:06;26.20;44.50
46309;DHT22;32037;50.820;6.494;2022-07-05T03:16:48;26.20;44.50
46309;DHT22;32037;50.820;6.494;2022-07-05T03:19:29;26.20;44.50
46309;DHT22;32037;50.820;6.494;2022-07-05T03:22:09;26.20;44.40
46309;DHT22;32037;50.820;6.494;2022-07-05T03:24:52;26.20;44.50
46309;DHT22;32037;50.820;6.494;2022-07-05T03:27:45;26.20;44.50
46309;DHT22;32037;50.820;6.494;2022-07-05T03:30:27;26.20;44.40
46309;DHT22;32037;50.820;6.494;2022-07-05T03:33:09;26.20;44.50
46309;DHT22;32037;50.820;6.494;2022-07-05T03:35:54;26.20;44.50
46309;DHT22;32037;50.820;6.494;2022-07-05T03:38:36;26.20;44.50
46309;DHT22;32037;50.820;6.494;2022-07-05T03:41:15;26.20;44.50
46309;DHT22;32037;50.820;6.494;2022-07-05T03:43:55;26.20;44.60
46309;DHT22;32037;50.820;6.494;2022-07-05T03:46:37;26.10;44.50
46309;DHT22;32037;50.820;6.494;2022-07-05T03:49:16;26.10;44.60
46309;DHT22;32037;50.820;6.494;2022-07-05T03:51:58;26.10;44.60
46309;DHT22;32037;50.820;6.494;2022-07-05T03:54:38;26.10;44.50
46309;DHT22;32037;50.820;6.494;2022-07-05T03:57:18;26.10;44.50
46309;DHT22;32037;50.820;6.494;2022-07-05T03:59:59;26.10;44.50
46309;DHT22;32037;50.820;6.494;2022-07-05T04:02:40;26.10;44.50
46309;DHT22;32037;50.820;6.494;2022-07-05T04:05:25;26.10;44.50
46309;DHT22;32037;50.820;6.494;2022-07-05T04:08:06;26.10;44.60
46309;DHT22;32037;50.820;6.494;2022-07-05T04:10:52;26.00;44.60
46309;DHT22;32037;50.820;6.494;2022-07-05T04:13:35;26.10;44.60
46309;DHT22;32037;50.820;6.494;2022-07-05T04:16:17;26.10;44.70
46309;DHT22;32037;50.820;6.494;2022-07-05T04:18:58;26.00;44.70
46309;DHT22;32037;50.820;6.494;2022-07-05T04:21:41;26.00;44.80
46309;DHT22;32037;50.820;6.494;2022-07-05T04:24:23;26.00;44.80
46309;DHT22;32037;50.820;6.494;2022-07-05T04:27:03;26.00;44.80
46309;DHT22;32037;50.820;6.494;2022-07-05T04:29:44;26.00;44.80
46309;DHT22;32037;50.820;6.494;2022-07-05T04:32:25;26.00;44.80
46309;DHT22;32037;50.820;6.494;2022-07-05T04:35:07;26.00;44.80
46309;DHT22;32037;50.820;6.494;2022-07-05T04:37:48;26.00;44.90
46309;DHT22;32037;50.820;6.494;2022-07-05T04:40:30;26.00;44.80
46309;DHT22;32037;50.820;6.494;2022-07-05T04:43:11;26.00;44.90
46309;DHT22;32037;50.820;6.494;2022-07-05T04:45:51;26.00;44.80
46309;DHT22;32037;50.820;6.494;2022-07-05T04:48:35;26.00;44.80
46309;DHT22;32037;50.820;6.494;2022-07-05T04:51:17;26.00;45.00
46309;DHT22;32037;50.820;6.494;2022-07-05T04:53:56;26.00;44.90
46309;DHT22;32037;50.820;6.494;2022-07-05T04:56:36;26.00;44.80
46309;DHT22;32037;50.820;6.494;2022-07-05T04:59:16;26.00;44.80
46309;DHT22;32037;50.820;6.494;2022-07-05T05:02:03;26.00;45.00
46309;DHT22;32037;50.820;6.494;2022-07-05T05:04:44;26.00;45.00
46309;DHT22;32037;50.820;6.494;2022-07-05T05:07:24;25.90;44.90
46309;DHT22;32037;50.820;6.494;2022-07-05T05:10:05;25.90;44.90
46309;DHT22;32037;50.820;6.494;2022-07-05T05:12:45;25.90;45.00
46309;DHT22;32037;50.820;6.494;2022-07-05T05:15:25;25.90;44.80
46309;DHT22;32037;50.820;6.494;2022-07-05T05:18:06;25.90;44.80
46309;DHT22;32037;50.820;6.494;2022-07-05T05:20:46;25.90;44.80
46309;DHT22;32037;50.820;6.494;2022-07-05T05:23:26;25.90;44.80
46309;DHT22;32037;50.820;6.494;2022-07-05T05:26:05;25.90;44.80
46309;DHT22;32037;50.820;6.494;2022-07-05T05:28:45;25.90;46.00
46309;DHT22;32037;50.820;6.494;2022-07-05T05:31:27;25.90;44.80
46309;DHT22;32037;50.820;6.494;2022-07-05T05:36:59;25.90;44.60
46309;DHT22;32037;50.820;6.494;2022-07-05T05:39:39;25.90;44.60
46309;DHT22;32037;50.820;6.494;2022-07-05T05:42:20;25.90;44.50
46309;DHT22;32037;50.820;6.494;2022-07-05T05:45:02;25.90;44.50
46309;DHT22;32037;50.820;6.494;2022-07-05T05:47:48;25.90;44.50
46309;DHT22;32037;50.820;6.494;2022-07-05T05:50:31;25.90;44.60
46309;DHT22;32037;50.820;6.494;2022-07-05T05:53:09;25.90;44.70
46309;DHT22;32037;50.820;6.494;2022-07-05T05:55:50;25.90;44.70
46309;DHT22;32037;50.820;6.494;2022-07-05T05:58:30;25.90;44.50
46309;DHT22;32037;50.820;6.494;2022-07-05T06:01:10;25.90;44.40
46309;DHT22;32037;50.820;6.494;2022-07-05T06:03:50;25.90;44.40
46309;DHT22;32037;50.820;6.494;2022-07-05T06:06:30;25.90;44.40
46309;DHT22;32037;50.820;6.494;2022-07-05T06:09:09;25.90;44.50
46309;DHT22;32037;50.820;6.494;2022-07-05T06:11:49;25.90;44.40
46309;DHT22;32037;50.820;6.494;2022-07-05T06:14:29;25.90;44.40
46309;DHT22;32037;50.820;6.494;2022-07-05T06:17:09;25.90;44.30
46309;DHT22;32037;50.820;6.494;2022-07-05T06:19:49;25.80;44.20
46309;DHT22;32037;50.820;6.494;2022-07-05T06:22:29;25.80;44.30
46309;DHT22;32037;50.820;6.494;2022-07-05T06:25:09;25.90;44.40
46309;DHT22;32037;50.820;6.494;2022-07-05T06:28:06;25.80;44.30
46309;DHT22;32037;50.820;6.494;2022-07-05T06:30:47;25.80;44.40
46309;DHT22;32037;50.820;6.494;2022-07-05T06:33:29;25.90;44.50
46309;DHT22;32037;50.820;6.494;2022-07-05T06:36:09;25.80;44.30
46309;DHT22;32037;50.820;6.494;2022-07-05T06:38:50;25.80;44.30
46309;DHT22;32037;50.820;6.494;2022-07-05T06:41:31;25.80;45.40
46309;DHT22;32037;50.820;6.494;2022-07-05T06:44:13;25.80;44.60
46309;DHT22;32037;50.820;6.494;2022-07-05T06:47:15;25.90;45.40
46309;DHT22;32037;50.820;6.494;2022-07-05T06:49:58;25.80;44.10
46309;DHT22;32037;50.820;6.494;2022-07-05T06:52:39;25.80;44.10
46309;DHT22;32037;50.820;6.494;2022-07-05T06:55:19;25.80;44.30
46309;DHT22;32037;50.820;6.494;2022-07-05T06:58:02;25.70;44.90
46309;DHT22;32037;50.820;6.494;2022-07-05T07:00:51;25.70;43.70
46309;DHT22;32037;50.820;6.494;2022-07-05T07:03:52;25.70;43.80
46309;DHT22;32037;50.820;6.494;2022-07-05T07:06:53;25.70;44.90
46309;DHT22;32037;50.820;6.494;2022-07-05T07:09:32;25.70;43.90
46309;DHT22;32037;50.820;6.494;2022-07-05T07:12:12;25.70;44.00
46309;DHT22;32037;50.820;6.494;2022-07-05T07:14:52;25.70;44.20
46309;DHT22;32037;50.820;6.494;2022-07-05T07:17:32;25.80;43.30
46309;DHT22;32037;50.820;6.494;2022-07-05T07:20:12;25.80;42.90
46309;DHT22;32037;50.820;6.494;2022-07-05T07:22:53;25.80;43.20
46309;DHT22;32037;50.820;6.494;2022-07-05T07:25:33;25.80;43.10
46309;DHT22;32037;50.820;6.494;2022-07-05T07:28:14;25.80;43.30
46309;DHT22;32037;50.820;6.494;2022-07-05T07:30:54;25.70;43.60
46309;DHT22;32037;50.820;6.494;2022-07-05T07:33:35;25.70;43.70
46309;DHT22;32037;50.820;6.494;2022-07-05T07:36:23;25.70;43.90
46309;DHT22;32037;50.820;6.494;2022-07-05T07:39:03;25.70;44.00
46309;DHT22;32037;50.820;6.494;2022-07-05T07:41:45;25.70;44.20
46309;DHT22;32037;50.820;6.494;2022-07-05T07:44:26;25.70;44.20
46309;DHT22;32037;50.820;6.494;2022-07-05T07:47:11;25.70;44.20
46309;DHT22;32037;50.820;6.494;2022-07-05T07:49:52;25.70;44.20
46309;DHT22;32037;50.820;6.494;2022-07-05T07:52:32;25.70;44.30
46309;DHT22;32037;50.820;6.494;2022-07-05T07:55:13;25.70;44.40
46309;DHT22;32037;50.820;6.494;2022-07-05T07:57:55;25.70;44.30
46309;DHT22;32037;50.820;6.494;2022-07-05T08:00:34;25.70;44.30
46309;DHT22;32037;50.820;6.494;2022-07-05T08:03:14;25.70;44.50
46309;DHT22;32037;50.820;6.494;2022-07-05T08:05:56;25.70;44.00
46309;DHT22;32037;50.820;6.494;2022-07-05T08:08:38;25.70;44.30
46309;DHT22;32037;50.820;6.494;2022-07-05T08:11:18;25.70;44.40
46309;DHT22;32037;50.820;6.494;2022-07-05T08:13:58;25.60;44.40
46309;DHT22;32037;50.820;6.494;2022-07-05T08:16:40;25.70;43.90
46309;DHT22;32037;50.820;6.494;2022-07-05T08:19:29;25.70;42.90
46309;DHT22;32037;50.820;6.494;2022-07-05T08:22:26;25.70;42.80
46309;DHT22;32037;50.820;6.494;2022-07-05T08:25:08;25.70;44.10
46309;DHT22;32037;50.820;6.494;2022-07-05T08:27:48;25.70;43.10
46309;DHT22;32037;50.820;6.494;2022-07-05T08:30:28;25.70;43.40
46309;DHT22;32037;50.820;6.494;2022-07-05T08:33:09;25.70;43.10
46309;DHT22;32037;50.820;6.494;2022-07-05T08:35:49;25.70;42.90
46309;DHT22;32037;50.820;6.494;2022-07-05T08:38:27;25.70;43.00
46309;DHT22;32037;50.820;6.494;2022-07-05T08:41:11;25.70;44.60
46309;DHT22;32037;50.820;6.494;2022-07-05T08:43:52;25.70;43.60
46309;DHT22;32037;50.820;6.494;2022-07-05T08:46:37;25.70;43.70
46309;DHT22;32037;50.820;6.494;2022-07-05T08:49:21;25.70;43.80
46309;DHT22;32037;50.820;6.494;2022-07-05T08:52:03;25.70;44.00
46309;DHT22;32037;50.820;6.494;2022-07-05T08:54:46;25.70;44.00
46309;DHT22;32037;50.820;6.494;2022-07-05T08:57:26;25.70;44.10
46309;DHT22;32037;50.820;6.494;2022-07-05T09:00:07;25.70;44.20
46309;DHT22;32037;50.820;6.494;2022-07-05T09:02:48;25.70;44.30
46309;DHT22;32037;50.820;6.494;2022-07-05T09:05:31;25.70;44.20
46309;DHT22;32037;50.820;6.494;2022-07-05T09:08:16;25.60;44.00
46309;DHT22;32037;50.820;6.494;2022-07-05T09:10:56;25.60;44.10
46309;DHT22;32037;50.820;6.494;2022-07-05T09:13:37;25.60;44.00
46309;DHT22;32037;50.820;6.494;2022-07-05T09:16:18;25.70;44.20
46309;DHT22;32037;50.820;6.494;2022-07-05T09:19:04;25.70;44.10
46309;DHT22;32037;50.820;6.494;2022-07-05T09:21:45;25.60;44.00
46309;DHT22;32037;50.820;6.494;2022-07-05T09:24:27;25.60;44.00
46309;DHT22;32037;50.820;6.494;2022-07-05T09:27:08;25.60;44.00
46309;DHT22;32037;50.820;6.494;2022-07-05T09:29:54;25.60;44.00
46309;DHT22;32037;50.820;6.494;2022-07-05T09:32:41;25.70;44.10
46309;DHT22;32037;50.820;6.494;2022-07-05T09:35:20;25.60;45.40
46309;DHT22;32037;50.820;6.494;2022-07-05T09:38:02;25.70;44.30
46309;DHT22;32037;50.820;6.494;2022-07-05T09:40:47;25.70;44.30
46309;DHT22;32037;50.820;6.494;2022-07-05T09:43:30;25.70;44.20
46309;DHT22;32037;50.820;6.494;2022-07-05T09:46:11;25.70;44.20
46309;DHT22;32037;50.820;6.494;2022-07-05T09:48:52;25.70;44.00
46309;DHT22;32037;50.820;6.494;2022-07-05T09:51:46;25.60;43.80
46309;DHT22;32037;50.820;6.494;2022-07-05T09:54:34;25.70;43.60
46309;DHT22;32037;50.820;6.494;2022-07-05T09:57:24;25.60;43.50
46309;DHT22;32037;50.820;6.494;2022-07-05T10:00:07;25.60;43.70
46309;DHT22;32037;50.820;6.494;2022-07-05T10:02:49;25.60;43.90
46309;DHT22;32037;50.820;6.494;2022-07-05T10:05:32;25.60;43.90
46309;DHT22;32037;50.820;6.494;2022-07-05T10:08:13;25.60;43.90
46309;DHT22;32037;50.820;6.494;2022-07-05T10:10:54;25.70;44.10
46309;DHT22;32037;50.820;6.494;2022-07-05T10:13:34;25.60;43.80
46309;DHT22;32037;50.820;6.494;2022-07-05T10:16:15;25.60;43.80
46309;DHT22;32037;50.820;6.494;2022-07-05T10:18:56;25.70;43.80
46309;DHT22;32037;50.820;6.494;2022-07-05T10:21:37;25.70;44.00
46309;DHT22;32037;50.820;6.494;2022-07-05T10:24:40;25.60;43.90
46309;DHT22;32037;50.820;6.494;2022-07-05T10:27:22;25.60;43.90
46309;DHT22;32037;50.820;6.494;2022-07-05T10:30:07;25.60;43.70
46309;DHT22;32037;50.820;6.494;2022-07-05T10:32:48;25.60;43.70
46309;DHT22;32037;50.820;6.494;2022-07-05T10:35:31;25.60;43.80
46309;DHT22;32037;50.820;6.494;2022-07-05T10:38:12;25.60;43.60
46309;DHT22;32037;50.820;6.494;2022-07-05T10:40:57;25.60;43.70
46309;DHT22;32037;50.820;6.494;2022-07-05T10:43:40;25.60;43.50
46309;DHT22;32037;50.820;6.494;2022-07-05T10:46:33;25.60;43.60
46309;DHT22;32037;50.820;6.494;2022-07-05T10:49:16;25.70;43.90
46309;DHT22;32037;50.820;6.494;2022-07-05T10:51:57;25.70;42.50
46309;DHT22;32037;50.820;6.494;2022-07-05T10:55:19;25.60;42.60
46309;DHT22;32037;50.820;6.494;2022-07-05T10:58:23;25.60;42.70
46309;DHT22;32037;50.820;6.494;2022-07-05T11:04:27;25.70;43.00
46309;DHT22;32037;50.820;6.494;2022-07-05T11:07:12;25.60;42.90
46309;DHT22;32037;50.820;6.494;2022-07-05T11:10:00;25.60;43.00
46309;DHT22;32037;50.820;6.494;2022-07-05T11:12:42;25.60;43.00
46309;DHT22;32037;50.820;6.494;2022-07-05T11:15:23;25.60;42.80
46309;DHT22;32037;50.820;6.494;2022-07-05T11:18:23;25.60;42.90
46309;DHT22;32037;50.820;6.494;2022-07-05T11:21:17;25.60;41.90
46309;DHT22;32037;50.820;6.494;2022-07-05T11:24:18;25.70;42.40
46309;DHT22;32037;50.820;6.494;2022-07-05T11:27:00;25.70;42.60
46309;DHT22;32037;50.820;6.494;2022-07-05T11:29:42;25.70;42.70
46309;DHT22;32037;50.820;6.494;2022-07-05T11:32:34;25.70;42.50
46309;DHT22;32037;50.820;6.494;2022-07-05T11:35:17;25.70;42.40
46309;DHT22;32037;50.820;6.494;2022-07-05T11:37:59;25.70;42.50
46309;DHT22;32037;50.820;6.494;2022-07-05T11:41:12;25.70;42.70
46309;DHT22;32037;50.820;6.494;2022-07-05T11:43:56;25.70;42.50
46309;DHT22;32037;50.820;6.494;2022-07-05T11:46:38;25.70;42.90
46309;DHT22;32037;50.820;6.494;2022-07-05T11:49:27;25.70;42.90
46309;DHT22;32037;50.820;6.494;2022-07-05T11:52:09;25.70;42.60
46309;DHT22;32037;50.820;6.494;2022-07-05T11:54:50;25.70;42.40
46309;DHT22;32037;50.820;6.494;2022-07-05T11:57:32;25.70;42.50
46309;DHT22;32037;50.820;6.494;2022-07-05T12:00:14;25.70;42.70
46309;DHT22;32037;50.820;6.494;2022-07-05T12:03:12;25.70;42.40
46309;DHT22;32037;50.820;6.494;2022-07-05T12:05:53;25.70;42.70
46309;DHT22;32037;50.820;6.494;2022-07-05T12:08:35;25.70;42.90
46309;DHT22;32037;50.820;6.494;2022-07-05T12:11:14;25.70;42.50
46309;DHT22;32037;50.820;6.494;2022-07-05T12:14:21;25.80;42.50
46309;DHT22;32037;50.820;6.494;2022-07-05T12:17:15;25.80;42.20
46309;DHT22;32037;50.820;6.494;2022-07-05T12:20:05;25.80;42.10
46309;DHT22;32037;50.820;6.494;2022-07-05T12:22:45;25.80;42.50
46309;DHT22;32037;50.820;6.494;2022-07-05T12:25:28;25.80;42.10
46309;DHT22;32037;50.820;6.494;2022-07-05T12:28:09;25.80;42.40
46309;DHT22;32037;50.820;6.494;2022-07-05T12:30:49;25.80;41.80
46309;DHT22;32037;50.820;6.494;2022-07-05T12:33:30;25.80;41.10
46309;DHT22;32037;50.820;6.494;2022-07-05T12:36:12;25.80;41.40
46309;DHT22;32037;50.820;6.494;2022-07-05T12:38:59;25.80;41.80
46309;DHT22;32037;50.820;6.494;2022-07-05T12:41:43;25.80;41.90
46309;DHT22;32037;50.820;6.494;2022-07-05T12:44:24;25.80;41.80
46309;DHT22;32037;50.820;6.494;2022-07-05T12:47:06;25.80;41.30
46309;DHT22;32037;50.820;6.494;2022-07-05T12:49:56;25.80;40.60
46309;DHT22;32037;50.820;6.494;2022-07-05T12:52:55;25.70;40.00
46309;DHT22;32037;50.820;6.494;2022-07-05T12:55:37;25.70;39.90
46309;DHT22;32037;50.820;6.494;2022-07-05T12:58:45;25.70;40.20
46309;DHT22;32037;50.820;6.494;2022-07-05T13:01:27;25.70;40.20
46309;DHT22;32037;50.820;6.494;2022-07-05T13:04:10;25.70;39.90
46309;DHT22;32037;50.820;6.494;2022-07-05T13:06:51;25.80;40.70
46309;DHT22;32037;50.820;6.494;2022-07-05T13:09:35;25.80;40.80
46309;DHT22;32037;50.820;6.494;2022-07-05T13:12:17;25.80;40.90
46309;DHT22;32037;50.820;6.494;2022-07-05T13:15:01;25.80;41.10
46309;DHT22;32037;50.820;6.494;2022-07-05T13:17:42;25.90;41.30
46309;DHT22;32037;50.820;6.494;2022-07-05T13:20:24;25.90;41.60
46309;DHT22;32037;50.820;6.494;2022-07-05T13:23:05;25.90;41.60
46309;DHT22;32037;50.820;6.494;2022-07-05T13:25:46;25.90;41.50
46309;DHT22;32037;50.820;6.494;2022-07-05T13:28:27;25.90;41.40
46309;DHT22;32037;50.820;6.494;2022-07-05T13:31:07;25.90;41.60
46309;DHT22;32037;50.820;6.494;2022-07-05T13:33:50;25.90;41.50
46309;DHT22;32037;50.820;6.494;2022-07-05T13:36:32;26.00;41.80
46309;DHT22;32037;50.820;6.494;2022-07-05T13:39:13;26.00;41.90
46309;DHT22;32037;50.820;6.494;2022-07-05T13:41:56;26.00;41.20
46309;DHT22;32037;50.820;6.494;2022-07-05T13:44:38;26.00;40.80
46309;DHT22;32037;50.820;6.494;2022-07-05T13:47:19;26.00;40.40
46309;DHT22;32037;50.820;6.494;2022-07-05T13:50:00;26.00;40.10
46309;DHT22;32037;50.820;6.494;2022-07-05T13:52:58;26.00;40.10
46309;DHT22;32037;50.820;6.494;2022-07-05T13:55:39;26.00;40.10
46309;DHT22;32037;50.820;6.494;2022-07-05T13:58:21;26.00;40.10
46309;DHT22;32037;50.820;6.494;2022-07-05T14:01:02;26.00;40.10
46309;DHT22;32037;50.820;6.494;2022-07-05T14:03:43;26.00;40.50
46309;DHT22;32037;50.820;6.494;2022-07-05T14:06:25;26.00;40.60
46309;DHT22;32037;50.820;6.494;2022-07-05T14:09:06;26.00;40.80
46309;DHT22;32037;50.820;6.494;2022-07-05T14:11:46;26.00;40.50
46309;DHT22;32037;50.820;6.494;2022-07-05T14:14:27;26.00;40.10
46309;DHT22;32037;50.820;6.494;2022-07-05T14:17:09;26.00;40.70
46309;DHT22;32037;50.820;6.494;2022-07-05T14:19:50;26.00;41.20
46309;DHT22;32037;50.820;6.494;2022-07-05T14:22:32;26.00;40.60
46309;DHT22;32037;50.820;6.494;2022-07-05T14:25:13;26.00;40.40
46309;DHT22;32037;50.820;6.494;2022-07-05T14:27:53;26.00;40.50
46309;DHT22;32037;50.820;6.494;2022-07-05T14:30:35;26.00;40.70
46309;DHT22;32037;50.820;6.494;2022-07-05T14:33:16;26.00;40.20
46309;DHT22;32037;50.820;6.494;2022-07-05T14:35:57;26.10;40.10
46309;DHT22;32037;50.820;6.494;2022-07-05T14:38:38;26.10;40.80
46309;DHT22;32037;50.820;6.494;2022-07-05T14:41:20;26.00;40.80
46309;DHT22;32037;50.820;6.494;2022-07-05T14:44:01;26.00;40.80
46309;DHT22;32037;50.820;6.494;2022-07-05T14:46:43;26.00;40.10
46309;DHT22;32037;50.820;6.494;2022-07-05T14:49:24;26.00;40.20
46309;DHT22;32037;50.820;6.494;2022-07-05T14:52:07;26.10;40.20
46309;DHT22;32037;50.820;6.494;2022-07-05T14:54:48;26.10;40.10
46309;DHT22;32037;50.820;6.494;2022-07-05T14:57:30;26.10;40.10
46309;DHT22;32037;50.820;6.494;2022-07-05T15:00:13;26.10;40.10
46309;DHT22;32037;50.820;6.494;2022-07-05T15:02:54;26.10;40.20
46309;DHT22;32037;50.820;6.494;2022-07-05T15:05:39;26.20;39.80
46309;DHT22;32037;50.820;6.494;2022-07-05T15:08:20;26.20;39.70
46309;DHT22;32037;50.820;6.494;2022-07-05T15:11:02;26.20;39.80
46309;DHT22;32037;50.820;6.494;2022-07-05T15:13:43;26.20;40.20
46309;DHT22;32037;50.820;6.494;2022-07-05T15:16:23;26.20;40.20
46309;DHT22;32037;50.820;6.494;2022-07-05T15:19:04;26.20;40.10
46309;DHT22;32037;50.820;6.494;2022-07-05T15:21:46;26.20;40.20
46309;DHT22;32037;50.820;6.494;2022-07-05T15:24:26;26.20;41.40
46309;DHT22;32037;50.820;6.494;2022-07-05T15:27:07;26.20;40.20
46309;DHT22;32037;50.820;6.494;2022-07-05T15:29:56;26.30;40.20
46309;DHT22;32037;50.820;6.494;2022-07-05T15:32:38;26.30;40.20
46309;DHT22;32037;50.820;6.494;2022-07-05T15:35:19;26.30;40.30
46309;DHT22;32037;50.820;6.494;2022-07-05T15:37:59;26.20;40.20
46309;DHT22;32037;50.820;6.494;2022-07-05T15:40:40;26.30;40.20
46309;DHT22;32037;50.820;6.494;2022-07-05T15:43:22;26.30;40.30
46309;DHT22;32037;50.820;6.494;2022-07-05T15:46:05;26.30;40.20
46309;DHT22;32037;50.820;6.494;2022-07-05T15:48:45;26.30;40.20
46309;DHT22;32037;50.820;6.494;2022-07-05T15:51:26;26.30;40.20
46309;DHT22;32037;50.820;6.494;2022-07-05T15:54:06;26.30;40.20
46309;DHT22;32037;50.820;6.494;2022-07-05T15:56:47;26.30;40.20
46309;DHT22;32037;50.820;6.494;2022-07-05T15:59:30;26.30;39.70
46309;DHT22;32037;50.820;6.494;2022-07-05T16:02:12;26.30;40.00
46309;DHT22;32037;50.820;6.494;2022-07-05T16:04:55;26.30;40.30
46309;DHT22;32037;50.820;6.494;2022-07-05T16:07:36;26.30;40.30
46309;DHT22;32037;50.820;6.494;2022-07-05T16:10:18;26.30;40.20
46309;DHT22;32037;50.820;6.494;2022-07-05T16:13:15;26.30;40.30
46309;DHT22;32037;50.820;6.494;2022-07-05T16:15:58;26.30;40.20
46309;DHT22;32037;50.820;6.494;2022-07-05T16:18:55;26.30;40.20
46309;DHT22;32037;50.820;6.494;2022-07-05T16:21:37;26.30;40.30
46309;DHT22;32037;50.820;6.494;2022-07-05T16:24:19;26.30;40.30
46309;DHT22;32037;50.820;6.494;2022-07-05T16:27:01;26.30;40.80
46309;DHT22;32037;50.820;6.494;2022-07-05T16:29:44;26.20;40.30
46309;DHT22;32037;50.820;6.494;2022-07-05T16:32:26;26.30;39.60
46309;DHT22;32037;50.820;6.494;2022-07-05T16:35:07;26.30;40.20
46309;DHT22;32037;50.820;6.494;2022-07-05T16:37:48;26.30;39.50
46309;DHT22;32037;50.820;6.494;2022-07-05T16:40:30;26.30;39.20
46309;DHT22;32037;50.820;6.494;2022-07-05T16:43:11;26.40;39.40
46309;DHT22;32037;50.820;6.494;2022-07-05T16:45:53;26.40;39.30
46309;DHT22;32037;50.820;6.494;2022-07-05T16:48:34;26.40;39.50
46309;DHT22;32037;50.820;6.494;2022-07-05T16:51:17;26.50;39.80
46309;DHT22;32037;50.820;6.494;2022-07-05T16:53:57;26.50;40.00
46309;DHT22;32037;50.820;6.494;2022-07-05T16:56:38;26.50;40.30
46309;DHT22;32037;50.820;6.494;2022-07-05T16:59:18;26.50;40.30
46309;DHT22;32037;50.820;6.494;2022-07-05T17:01:59;26.60;40.50
46309;DHT22;32037;50.820;6.494;2022-07-05T17:04:44;26.60;40.50
46309;DHT22;32037;50.820;6.494;2022-07-05T17:07:25;26.60;40.50
46309;DHT22;32037;50.820;6.494;2022-07-05T17:10:08;26.70;40.50
46309;DHT22;32037;50.820;6.494;2022-07-05T17:12:48;26.70;40.50